RPi & Temperatures at JO21ut

Last graph updates: Thursday 17 October 2019 17:02 CEST

Sunrise: 08:03 & Sunset: 18:41 The Sun is currently visible at an elevation of 6.58 degrees and azimut of 246 and 149064198 Km from the Earth
Moonrise: 20:39 & Moonset: 11:40 Waning Gibbous Moon The Moon is 387715 Km from the Earth
Find here more details on MARS.

17:50:06 up 5 days, 22:51, 0 users, load average: 1.31, 1.05, 1.03
Current CPU frequency is: 1000 Mhz
Current GPU temperature: 31.476°C
Current inside temperature is 20.20°C with a humidity of 89.60%
Second inside temperature is 20.5°C with a pressure of 1005.15 Hpa (29.45 inHg) and an uncorrected altitude of 67.24 m
ds18b20 now showing 20.0°C

All the sensors I use, DHT22 | BMP085 | MPU6050 | BH1750FVI | MMA7455 | HMC5883L | MPL3115A2 | DS1307 | HTU21 | AM2321 | DS3231 | INA219 | LM75A , and it's current readout can be viewed here please be patient as it needs to read all sensors data. The page loads after about 10 seconds. In our forum more details can be found such as the used software/sources. Feel free to add yours also..


Pressure BMP085
Pressure BMP085
Pressure BMP085
Pressure BMP085
PI CPU Temp
Inet Volkel temp
Inside temp BMP085
Humidity BMP085
PI CPU Temp
Inet Volkel temp
Inside temp BMP085
Humidity BMP085
PI CPU Temp
Inet Volkel temp
Inside temp BMP085
Humidity BMP085
PI CPU Temp
Inet Volkel temp
Inside temp BMP085
Humidity BMP085
PI CPU Temp
Inet Volkel temp
Inside temp BMP085
Humidity BMP085
Inside light BH1750FV
Inside light BH1750FV
Inside light BH1750FV
Inside light BH1750FV
Inside light BH1750FV
Inside light BH1750FV
Sunlight hours
 

Sun & Moon position graph
Created with jpgraph 4.2.8


Wijchen weather

Weer Widget
ScreenSaver yr.no

Sun Moon Earth


EHEH 171525Z AUTO 16006KT 120V190 9999 BKN033/// OVC037/// 15/12 Q1009 BLU 19007KT 9999 SCT022 BKN025 EHEH 171525Z AUTO 16006KT 120V190 9999 BKN033/// OVC037/// 15/12 Q1009 BLU 19007KT 9999 SCT022 BKN025 EHEH 171525Z AUTO 16006KT 120V190 9999 BKN033/// OVC037/// 15/12 Q1009 BLU 19007KT 9999 SCT022 BKN025

Weather data from Volkel [NL] EHVK


25 minutes ago, at 15:25 UTC, the wind was calm in Volkel [EHVK], Netherlands. The temperature was 15 °C (59 °F) with a dewpoint of 12 °C (54 °F), and the pressure was 1,009 hPa (29.80 inHg). The relative humidity was 82.2%. There were scattered clouds at a height of 671 meter (2200 feet) and broken clouds at a height of 762 meter (2500 feet). The visibility was >10 kilometers (>6.2 miles).




View code:

Contact me  |  My Raspberry PI forum